Terminal Aerodrome Forecast
Issued by NWS Charleston, WV

Home | Current Version | Previous Version | Text Only | Print | Product List | Glossary On
Versions: 1 2 3 4 5 6 7 8 9 10 11 12 13 14 15 16 17 18 19 20 21 22 23
000
FTUS41 KRLX 290249 AAB
TAFHTS
TAF AMD
KHTS 290249Z 2903/2924 23005KT P6SM BKN040
     FM290500 23006KT 6SM SHRA VCTS BKN025CB
     FM290700 24006KT P6SM BKN025
     FM291200 25005KT P6SM SCT015
     FM291700 24006KT P6SM SCT035=

USA.gov is the U.S. government's official web portal to all federal, state and local government web resources and services.